UAL1011 OMDB-KMIA
Flight info
| Callsign | UAL1011 |
|---|---|
| Flight time | N/A |
| Altitude | 34000 |
| Route | DAVMO M318 GABKO M317 ROTAL P574 SYZ P550 DASIS UR660 ERZ UW704 CRM/N0488F360 UL746 ODERO DCT LUGEB DCT DEGET DCT ABETI DCT TAGAS DCT RENKA L610 MAMOR DCT PETIX DCT TUSUK DCT ADKUV/N0486F380 DCT SOGRI DCT DENUT L610 LAM L179 ICTAM M197 ENHAQ DCT GAJIT DCT BAPHU DCT LESLU/M085F380 DCT RODEL/M085F390 DCT 51N020W 51N030W 5030N04000W 4830N05000W DCT MUSAK/M085F400 N278C GAYBL DCT 41N065W DCT DRYED M201 VIRST Y494 WHOOS/N0486F400 Y494 WEAKK Y493 BAHAA AR15 HIBAC TARPN3 |
| Aircraft | A359/H-SDE2E3GHIJ3J4J5LM1ORWXY/LB1D1 |
Departure
| Time | 2026-04-22 15:55 |
|---|---|
| Airport | Dubai International Airport (OMDB) |
Arrival
| Time | N/A |
|---|---|
| Airport | Miami International Airport (KMIA) |
| Time | Latitude | Longitude | Altitude | Speed | Heading |
|---|---|---|---|---|---|
| 2026-04-22 15:31 | 25.25878 | 55.34514 | 26 ft | 0 kts | 211° |
| 2026-04-22 15:37 | 25.25886 | 55.34519 | 28 ft | 4 kts | 211° |
| 2026-04-22 15:38 | 25.25909 | 55.34534 | 27 ft | 4 kts | 211° |
| 2026-04-22 15:38 | 25.25949 | 55.34555 | 28 ft | 4 kts | 165° |
| 2026-04-22 15:38 | 25.25962 | 55.34547 | 27 ft | 4 kts | 118° |
| 2026-04-22 15:39 | 25.25974 | 55.34521 | 28 ft | 4 kts | 120° |
| 2026-04-22 15:39 | 25.25977 | 55.34515 | 28 ft | 0 kts | 122° |
| 2026-04-22 15:46 | 25.25976 | 55.34515 | 28 ft | 0 kts | 122° |
| 2026-04-22 15:46 | 25.25973 | 55.34522 | 27 ft | 3 kts | 123° |
| 2026-04-22 15:47 | 25.25940 | 55.34580 | 27 ft | 16 kts | 121° |
| 2026-04-22 15:47 | 25.25868 | 55.34709 | 28 ft | 23 kts | 123° |
| 2026-04-22 15:47 | 25.25772 | 55.34880 | 28 ft | 28 kts | 122° |
| 2026-04-22 15:47 | 25.25756 | 55.34909 | 28 ft | 0 kts | 121° |
| 2026-04-22 15:48 | 25.25740 | 55.34940 | 29 ft | 18 kts | 117° |
| 2026-04-22 15:48 | 25.25773 | 55.35016 | 28 ft | 9 kts | 33° |
| 2026-04-22 15:48 | 25.25872 | 55.35083 | 28 ft | 24 kts | 31° |
| 2026-04-22 15:49 | 25.26050 | 55.35201 | 28 ft | 26 kts | 31° |
| 2026-04-22 15:49 | 25.26068 | 55.35214 | 28 ft | 0 kts | 31° |
| 2026-04-22 15:49 | 25.26111 | 55.35255 | 29 ft | 18 kts | 61° |
| 2026-04-22 15:50 | 25.26111 | 55.35323 | 28 ft | 7 kts | 128° |
| 2026-04-22 15:50 | 25.26053 | 55.35410 | 28 ft | 22 kts | 122° |
| 2026-04-22 15:50 | 25.25943 | 55.35611 | 28 ft | 33 kts | 121° |
| 2026-04-22 15:50 | 25.25824 | 55.35825 | 28 ft | 32 kts | 122° |
| 2026-04-22 15:51 | 25.25709 | 55.36030 | 28 ft | 31 kts | 122° |
| 2026-04-22 15:51 | 25.25600 | 55.36228 | 28 ft | 30 kts | 121° |
| 2026-04-22 15:51 | 25.25495 | 55.36420 | 28 ft | 29 kts | 121° |
| 2026-04-22 15:51 | 25.25393 | 55.36605 | 28 ft | 28 kts | 121° |
| 2026-04-22 15:52 | 25.25293 | 55.36784 | 28 ft | 28 kts | 121° |
| 2026-04-22 15:52 | 25.25178 | 55.36986 | 28 ft | 34 kts | 122° |
| 2026-04-22 15:52 | 25.25046 | 55.37224 | 28 ft | 39 kts | 120° |
| 2026-04-22 15:52 | 25.24906 | 55.37483 | 28 ft | 39 kts | 121° |
| 2026-04-22 15:53 | 25.24780 | 55.37715 | 28 ft | 28 kts | 121° |
| 2026-04-22 15:53 | 25.24719 | 55.37844 | 28 ft | 6 kts | 88° |
| 2026-04-22 15:53 | 25.24750 | 55.37889 | 28 ft | 11 kts | 34° |
| 2026-04-22 15:53 | 25.24833 | 55.37932 | 28 ft | 13 kts | 356° |
| 2026-04-22 15:54 | 25.24888 | 55.37871 | 28 ft | 11 kts | 303° |
| 2026-04-22 15:54 | 25.24930 | 55.37797 | 28 ft | 12 kts | 302° |
| 2026-04-22 15:54 | 25.25054 | 55.37576 | 28 ft | 63 kts | 301° |
| 2026-04-22 15:54 | 25.25384 | 55.36982 | 28 ft | 117 kts | 302° |
| 2026-04-22 15:55 | 25.25902 | 55.36052 | 29 ft | 164 kts | 301° |
| 2026-04-22 15:55 | 25.26556 | 55.34881 | 321 ft | 182 kts | 303° |
| 2026-04-22 15:55 | 25.27265 | 55.33688 | 759 ft | 191 kts | 306° |
| 2026-04-22 15:55 | 25.28062 | 55.32422 | 1055 ft | 212 kts | 307° |
| 2026-04-22 15:56 | 25.28965 | 55.31064 | 1306 ft | 232 kts | 309° |
| 2026-04-22 15:56 | 25.30046 | 55.29665 | 1379 ft | 247 kts | 324° |
| 2026-04-22 15:56 | 25.31654 | 55.28998 | 1572 ft | 253 kts | 360° |
| 2026-04-22 15:56 | 25.33417 | 55.29146 | 1953 ft | 257 kts | 7° |
| 2026-04-22 15:57 | 25.35206 | 55.29364 | 2359 ft | 262 kts | 5° |
| 2026-04-22 15:57 | 25.37043 | 55.29526 | 2773 ft | 267 kts | 3° |
| 2026-04-22 15:57 | 25.38914 | 55.29643 | 3200 ft | 272 kts | 4° |
| 2026-04-22 15:57 | 25.40769 | 55.30107 | 3641 ft | 276 kts | 20° |
| 2026-04-22 15:58 | 25.42558 | 55.30922 | 4119 ft | 280 kts | 22° |
| 2026-04-22 15:58 | 25.44343 | 55.31779 | 4608 ft | 282 kts | 22° |
| 2026-04-22 15:58 | 25.46159 | 55.32642 | 5054 ft | 285 kts | 21° |
| 2026-04-22 15:58 | 25.47969 | 55.33500 | 5468 ft | 289 kts | 21° |
| 2026-04-22 15:59 | 25.49828 | 55.34374 | 5891 ft | 291 kts | 20° |
| 2026-04-22 15:59 | 25.51693 | 55.35250 | 6298 ft | 294 kts | 20° |
| 2026-04-22 15:59 | 25.53590 | 55.36140 | 6717 ft | 296 kts | 20° |
| 2026-04-22 15:59 | 25.55493 | 55.37032 | 7119 ft | 298 kts | 20° |
| 2026-04-22 16:00 | 25.57410 | 55.37954 | 7566 ft | 302 kts | 24° |
| 2026-04-22 16:00 | 25.59218 | 55.39168 | 8051 ft | 305 kts | 33° |
| 2026-04-22 16:00 | 25.60961 | 55.40521 | 8558 ft | 307 kts | 34° |
| 2026-04-22 16:00 | 25.62714 | 55.41902 | 9018 ft | 311 kts | 34° |
| 2026-04-22 16:01 | 25.64461 | 55.43274 | 9511 ft | 313 kts | 34° |
| 2026-04-22 16:01 | 25.66244 | 55.44680 | 9993 ft | 316 kts | 35° |
| 2026-04-22 16:01 | 25.67928 | 55.46253 | 10476 ft | 319 kts | 42° |
| 2026-04-22 16:01 | 25.69547 | 55.47946 | 10981 ft | 321 kts | 43° |
| 2026-04-22 16:02 | 25.71185 | 55.49675 | 11286 ft | 331 kts | 43° |
| 2026-04-22 16:02 | 25.72888 | 55.51470 | 11516 ft | 344 kts | 42° |
| 2026-04-22 16:02 | 25.74656 | 55.53328 | 11756 ft | 356 kts | 42° |
| 2026-04-22 16:02 | 25.76482 | 55.55246 | 11984 ft | 368 kts | 42° |
| 2026-04-22 16:03 | 25.78372 | 55.57232 | 12211 ft | 379 kts | 42° |
| 2026-04-22 16:03 | 25.80311 | 55.59269 | 12429 ft | 389 kts | 42° |
| 2026-04-22 16:03 | 25.84706 | 55.63889 | 12902 ft | 410 kts | 42° |
| 2026-04-22 16:04 | 25.86895 | 55.65965 | 13091 ft | 417 kts | 36° |
| 2026-04-22 16:04 | 25.89286 | 55.67817 | 13404 ft | 421 kts | 31° |
| 2026-04-22 16:04 | 25.91782 | 55.69552 | 13741 ft | 424 kts | 29° |
| 2026-04-22 16:04 | 25.94281 | 55.71224 | 14067 ft | 427 kts | 29° |
| 2026-04-22 16:05 | 25.96006 | 55.72376 | 14299 ft | 429 kts | 29° |
| 2026-04-22 16:05 | 25.99389 | 55.74668 | 14774 ft | 432 kts | 30° |
| 2026-04-22 16:05 | 26.01947 | 55.76437 | 15139 ft | 434 kts | 30° |
| 2026-04-22 16:05 | 26.04552 | 55.78125 | 15485 ft | 434 kts | 23° |
| 2026-04-22 16:06 | 26.07385 | 55.79228 | 15845 ft | 430 kts | 8° |
| 2026-04-22 16:06 | 26.10347 | 55.79560 | 16198 ft | 427 kts | 358° |
| 2026-04-22 16:06 | 26.13324 | 55.79528 | 16565 ft | 427 kts | 354° |
| 2026-04-22 16:06 | 26.16248 | 55.79057 | 16904 ft | 424 kts | 341° |
| 2026-04-22 16:07 | 26.18944 | 55.77900 | 17252 ft | 419 kts | 328° |
| 2026-04-22 16:07 | 26.21311 | 55.76054 | 17609 ft | 414 kts | 314° |
| 2026-04-22 16:07 | 26.23315 | 55.73751 | 17970 ft | 413 kts | 308° |
| 2026-04-22 16:07 | 26.25168 | 55.71300 | 18301 ft | 414 kts | 306° |
| 2026-04-22 16:08 | 26.26954 | 55.68780 | 18624 ft | 415 kts | 305° |
| 2026-04-22 16:08 | 26.28724 | 55.66230 | 18935 ft | 417 kts | 304° |
| 2026-04-22 16:08 | 26.30509 | 55.63667 | 19260 ft | 419 kts | 305° |
| 2026-04-22 16:08 | 26.32285 | 55.61143 | 19602 ft | 420 kts | 305° |
| 2026-04-22 16:09 | 26.34105 | 55.58586 | 19954 ft | 422 kts | 305° |
| 2026-04-22 16:09 | 26.35940 | 55.56026 | 20297 ft | 424 kts | 305° |
| 2026-04-22 16:09 | 26.37790 | 55.53456 | 20642 ft | 425 kts | 305° |
| 2026-04-22 16:09 | 26.39649 | 55.50881 | 20996 ft | 427 kts | 306° |
| 2026-04-22 16:10 | 26.41518 | 55.48304 | 21351 ft | 429 kts | 306° |
| 2026-04-22 16:10 | 26.43399 | 55.45714 | 21690 ft | 430 kts | 305° |
| 2026-04-22 16:10 | 26.44647 | 55.43994 | 21920 ft | 431 kts | 305° |
| 2026-04-22 16:10 | 26.47183 | 55.40497 | 22364 ft | 434 kts | 305° |
| 2026-04-22 16:11 | 26.49083 | 55.37872 | 22693 ft | 436 kts | 305° |
| 2026-04-22 16:11 | 26.50992 | 55.35232 | 22792 ft | 437 kts | 305° |
| 2026-04-22 16:11 | 26.52878 | 55.32624 | 22795 ft | 438 kts | 305° |
| 2026-04-22 16:11 | 26.54793 | 55.29977 | 22801 ft | 438 kts | 305° |
| 2026-04-22 16:12 | 26.56703 | 55.27326 | 22802 ft | 438 kts | 304° |
| 2026-04-22 16:12 | 26.58612 | 55.24671 | 22802 ft | 439 kts | 304° |
| 2026-04-22 16:12 | 26.60522 | 55.22013 | 22800 ft | 439 kts | 304° |
| 2026-04-22 16:12 | 26.62434 | 55.19352 | 22805 ft | 439 kts | 304° |
| 2026-04-22 16:13 | 26.64344 | 55.16693 | 22809 ft | 439 kts | 304° |
| 2026-04-22 16:13 | 26.66252 | 55.14035 | 22810 ft | 439 kts | 304° |
| 2026-04-22 16:13 | 26.68140 | 55.11406 | 22814 ft | 439 kts | 304° |
| 2026-04-22 16:13 | 26.70050 | 55.08744 | 22818 ft | 439 kts | 304° |
| 2026-04-22 16:14 | 26.71965 | 55.06073 | 22818 ft | 439 kts | 304° |
| 2026-04-22 16:14 | 26.73872 | 55.03412 | 22819 ft | 439 kts | 304° |
| 2026-04-22 16:14 | 26.75780 | 55.00749 | 22826 ft | 439 kts | 304° |
| 2026-04-22 16:14 | 26.77687 | 54.98084 | 22827 ft | 439 kts | 304° |
| 2026-04-22 16:15 | 26.79599 | 54.95414 | 23032 ft | 440 kts | 304° |
| 2026-04-22 16:15 | 26.81508 | 54.92742 | 23460 ft | 439 kts | 303° |
| 2026-04-22 16:15 | 26.83410 | 54.90065 | 23757 ft | 441 kts | 303° |
| 2026-04-22 16:15 | 26.85321 | 54.87369 | 24067 ft | 442 kts | 303° |
| 2026-04-22 16:16 | 26.87202 | 54.84712 | 24387 ft | 443 kts | 304° |
| 2026-04-22 16:16 | 26.89128 | 54.81997 | 24709 ft | 445 kts | 304° |
| 2026-04-22 16:16 | 26.91058 | 54.79273 | 25014 ft | 447 kts | 304° |